sensor_id;sensor_type;location;lat;lon;timestamp;pressure;altitude;pressure_sealevel;temperature;humidity
9523;BME280;63165;43.016;25.784;2023-03-04T00:02:10;100213.03;;;8.04;99.94
9523;BME280;63165;43.016;25.784;2023-03-04T00:04:38;100212.19;;;8.02;99.96
9523;BME280;63165;43.016;25.784;2023-03-04T00:07:05;100210.47;;;7.96;100.00
9523;BME280;63165;43.016;25.784;2023-03-04T00:09:32;100202.66;;;7.99;100.00
9523;BME280;63165;43.016;25.784;2023-03-04T00:12:01;100203.50;;;8.00;100.00
9523;BME280;63165;43.016;25.784;2023-03-04T00:14:29;100191.38;;;7.92;100.00
9523;BME280;63165;43.016;25.784;2023-03-04T00:16:56;100185.31;;;7.92;100.00
9523;BME280;63165;43.016;25.784;2023-03-04T00:19:24;100196.56;;;7.92;100.00
9523;BME280;63165;43.016;25.784;2023-03-04T00:21:51;100191.34;;;8.02;100.00
9523;BME280;63165;43.016;25.784;2023-03-04T00:24:18;100183.56;;;7.94;100.00
9523;BME280;63165;43.016;25.784;2023-03-04T00:26:46;100189.59;;;8.02;100.00
9523;BME280;63165;43.016;25.784;2023-03-04T00:29:15;100168.81;;;7.91;100.00
9523;BME280;63165;43.016;25.784;2023-03-04T00:31:42;100176.59;;;7.97;100.00
9523;BME280;63165;43.016;25.784;2023-03-04T00:34:10;100174.00;;;7.94;100.00
9523;BME280;63165;43.016;25.784;2023-03-04T00:36:37;100181.81;;;7.94;100.00
9523;BME280;63165;43.016;25.784;2023-03-04T00:39:05;100174.84;;;7.98;100.00
9523;BME280;63165;43.016;25.784;2023-03-04T00:41:32;100177.44;;;7.96;100.00
9523;BME280;63165;43.016;25.784;2023-03-04T00:43:59;100174.84;;;7.98;100.00
9523;BME280;63165;43.016;25.784;2023-03-04T00:46:28;100174.00;;;7.99;100.00
9523;BME280;63165;43.016;25.784;2023-03-04T00:48:56;100180.06;;;7.98;100.00
9523;BME280;63165;43.016;25.784;2023-03-04T00:51:24;100183.56;;;7.95;100.00
9523;BME280;63165;43.016;25.784;2023-03-04T00:53:51;100171.44;;;7.84;99.92
9523;BME280;63165;43.016;25.784;2023-03-04T00:56:19;100174.06;;;7.82;99.73
9523;BME280;63165;43.016;25.784;2023-03-04T00:58:46;100175.78;;;7.86;99.80
9523;BME280;63165;43.016;25.784;2023-03-04T01:01:14;100163.63;;;7.76;99.91
9523;BME280;63165;43.016;25.784;2023-03-04T01:03:43;100178.38;;;7.85;99.78
9523;BME280;63165;43.016;25.784;2023-03-04T01:06:10;100174.03;;;7.85;99.93
9523;BME280;63165;43.016;25.784;2023-03-04T01:08:38;100174.91;;;7.86;100.00
9523;BME280;63165;43.016;25.784;2023-03-04T01:11:05;100176.63;;;7.85;99.87
9523;BME280;63165;43.016;25.784;2023-03-04T01:13:33;100174.91;;;7.84;99.54
9523;BME280;63165;43.016;25.784;2023-03-04T01:16:01;100169.72;;;7.78;99.65
9523;BME280;63165;43.016;25.784;2023-03-04T01:18:30;100179.25;;;7.82;99.81
9523;BME280;63165;43.016;25.784;2023-03-04T01:20:59;100180.97;;;7.83;99.78
9523;BME280;63165;43.016;25.784;2023-03-04T01:23:26;100180.97;;;7.83;99.73
9523;BME280;63165;43.016;25.784;2023-03-04T01:25:54;100170.56;;;7.83;99.67
9523;BME280;63165;43.016;25.784;2023-03-04T01:28:21;100172.31;;;7.81;99.95
9523;BME280;63165;43.016;25.784;2023-03-04T01:30:49;100178.38;;;7.82;99.22
9523;BME280;63165;43.016;25.784;2023-03-04T01:33:16;100185.34;;;7.81;99.55
9523;BME280;63165;43.016;25.784;2023-03-04T01:35:44;100188.81;;;7.78;99.37
9523;BME280;63165;43.016;25.784;2023-03-04T01:38:13;100187.94;;;7.80;99.71
9523;BME280;63165;43.016;25.784;2023-03-04T01:40:40;100177.53;;;7.76;100.00
9523;BME280;63165;43.016;25.784;2023-03-04T01:43:11;100193.16;;;7.81;100.00
9523;BME280;63165;43.016;25.784;2023-03-04T01:45:42;100176.66;;;7.84;100.00
9523;BME280;63165;43.016;25.784;2023-03-04T01:48:12;100146.31;;;7.66;100.00
9523;BME280;63165;43.016;25.784;2023-03-04T01:50:43;100181.84;;;7.87;100.00
9523;BME280;63165;43.016;25.784;2023-03-04T01:53:17;100162.78;;;7.80;100.00
9523;BME280;63165;43.016;25.784;2023-03-04T01:55:46;100177.47;;;7.89;100.00
9523;BME280;63165;43.016;25.784;2023-03-04T01:58:14;100167.09;;;7.81;100.00
9523;BME280;63165;43.016;25.784;2023-03-04T02:00:42;100176.63;;;7.91;100.00
9523;BME280;63165;43.016;25.784;2023-03-04T02:03:11;100175.75;;;7.91;100.00
9523;BME280;63165;43.016;25.784;2023-03-04T02:05:41;100177.47;;;7.90;100.00
9523;BME280;63165;43.016;25.784;2023-03-04T02:08:12;100169.66;;;7.92;100.00
9523;BME280;63165;43.016;25.784;2023-03-04T02:10:42;100162.75;;;7.88;100.00
9523;BME280;63165;43.016;25.784;2023-03-04T02:13:10;100167.06;;;7.87;100.00
9523;BME280;63165;43.016;25.784;2023-03-04T02:15:38;100160.16;;;7.78;100.00
9523;BME280;63165;43.016;25.784;2023-03-04T02:18:13;100168.00;;;7.80;100.00
9523;BME280;63165;43.016;25.784;2023-03-04T02:20:47;100164.53;;;7.73;100.00
9523;BME280;63165;43.016;25.784;2023-03-04T02:23:24;100161.91;;;7.76;100.00
9523;BME280;63165;43.016;25.784;2023-03-04T02:26:08;100161.91;;;7.73;100.00
9523;BME280;63165;43.016;25.784;2023-03-04T02:28:36;100168.84;;;7.76;100.00
9523;BME280;63165;43.016;25.784;2023-03-04T02:31:04;100163.63;;;7.76;100.00
9523;BME280;63165;43.016;25.784;2023-03-04T02:33:31;100161.03;;;7.76;100.00
9523;BME280;63165;43.016;25.784;2023-03-04T02:35:59;100158.44;;;7.77;100.00
9523;BME280;63165;43.016;25.784;2023-03-04T02:38:27;100145.44;;;7.67;100.00
9523;BME280;63165;43.016;25.784;2023-03-04T02:40:55;100158.44;;;7.81;100.00
9523;BME280;63165;43.016;25.784;2023-03-04T02:43:25;100150.63;;;7.81;100.00
9523;BME280;63165;43.016;25.784;2023-03-04T02:45:52;100157.56;;;7.77;100.00
9523;BME280;63165;43.016;25.784;2023-03-04T02:48:21;100154.97;;;7.77;100.00
9523;BME280;63165;43.016;25.784;2023-03-04T02:50:50;100161.88;;;7.80;100.00
9523;BME280;63165;43.016;25.784;2023-03-04T02:53:20;100161.03;;;7.79;100.00
9523;BME280;63165;43.016;25.784;2023-03-04T02:55:48;100156.72;;;7.72;100.00
9523;BME280;63165;43.016;25.784;2023-03-04T02:58:15;100154.09;;;7.76;100.00
9523;BME280;63165;43.016;25.784;2023-03-04T03:00:44;100141.97;;;7.69;100.00
9523;BME280;63165;43.016;25.784;2023-03-04T03:03:11;100157.56;;;7.80;100.00
9523;BME280;63165;43.016;25.784;2023-03-04T03:05:39;100149.78;;;7.71;100.00
9523;BME280;63165;43.016;25.784;2023-03-04T03:08:07;100140.25;;;7.62;100.00
9523;BME280;63165;43.016;25.784;2023-03-04T03:10:34;100156.69;;;7.81;100.00
9523;BME280;63165;43.016;25.784;2023-03-04T03:13:02;100160.16;;;7.80;100.00
9523;BME280;63165;43.016;25.784;2023-03-04T03:15:29;100153.22;;;7.76;100.00
9523;BME280;63165;43.016;25.784;2023-03-04T03:17:58;100155.81;;;7.81;100.00
9523;BME280;63165;43.016;25.784;2023-03-04T03:20:26;100149.75;;;7.78;100.00
9523;BME280;63165;43.016;25.784;2023-03-04T03:22:53;100150.63;;;7.76;100.00
9523;BME280;63165;43.016;25.784;2023-03-04T03:25:21;100162.78;;;7.80;100.00
9523;BME280;63165;43.016;25.784;2023-03-04T03:27:48;100157.56;;;7.78;100.00
9523;BME280;63165;43.016;25.784;2023-03-04T03:30:16;100162.78;;;7.78;100.00
9523;BME280;63165;43.016;25.784;2023-03-04T03:32:43;100163.63;;;7.77;100.00
9523;BME280;63165;43.016;25.784;2023-03-04T03:35:12;100158.44;;;7.77;100.00
9523;BME280;63165;43.016;25.784;2023-03-04T03:37:40;100163.63;;;7.77;100.00
9523;BME280;63165;43.016;25.784;2023-03-04T03:40:08;100151.50;;;7.75;100.00
9523;BME280;63165;43.016;25.784;2023-03-04T03:42:36;100156.69;;;7.80;100.00
9523;BME280;63165;43.016;25.784;2023-03-04T03:45:04;100154.97;;;7.78;100.00
9523;BME280;63165;43.016;25.784;2023-03-04T03:47:32;100157.56;;;7.74;100.00
9523;BME280;63165;43.016;25.784;2023-03-04T03:49:59;100154.09;;;7.75;100.00
9523;BME280;63165;43.016;25.784;2023-03-04T03:52:28;100157.56;;;7.74;100.00
9523;BME280;63165;43.016;25.784;2023-03-04T03:54:56;100161.91;;;7.73;100.00
9523;BME280;63165;43.016;25.784;2023-03-04T03:57:26;100158.44;;;7.76;100.00
9523;BME280;63165;43.016;25.784;2023-03-04T03:59:54;100149.75;;;7.75;100.00
9523;BME280;63165;43.016;25.784;2023-03-04T04:02:21;100154.97;;;7.78;100.00
9523;BME280;63165;43.016;25.784;2023-03-04T04:04:49;100139.38;;;7.71;100.00
9523;BME280;63165;43.016;25.784;2023-03-04T04:07:17;100151.53;;;7.69;100.00
9523;BME280;63165;43.016;25.784;2023-03-04T04:09:46;100162.78;;;7.75;100.00
9523;BME280;63165;43.016;25.784;2023-03-04T04:12:15;100160.16;;;7.75;100.00
9523;BME280;63165;43.016;25.784;2023-03-04T04:14:42;100161.03;;;7.77;100.00
9523;BME280;63165;43.016;25.784;2023-03-04T04:17:10;100170.59;;;7.77;100.00
9523;BME280;63165;43.016;25.784;2023-03-04T04:19:38;100167.97;;;7.74;100.00
9523;BME280;63165;43.016;25.784;2023-03-04T04:22:06;100163.66;;;7.68;100.00
9523;BME280;63165;43.016;25.784;2023-03-04T04:24:34;100162.81;;;7.66;100.00
9523;BME280;63165;43.016;25.784;2023-03-04T04:27:03;100170.59;;;7.72;100.00
9523;BME280;63165;43.016;25.784;2023-03-04T04:29:30;100152.38;;;7.68;100.00
9523;BME280;63165;43.016;25.784;2023-03-04T04:32:00;100149.78;;;7.68;100.00
9523;BME280;63165;43.016;25.784;2023-03-04T04:34:28;100159.31;;;7.76;100.00
9523;BME280;63165;43.016;25.784;2023-03-04T04:36:57;100160.16;;;7.75;100.00
9523;BME280;63165;43.016;25.784;2023-03-04T04:39:24;100156.72;;;7.75;100.00
9523;BME280;63165;43.016;25.784;2023-03-04T04:41:52;100158.44;;;7.76;100.00
9523;BME280;63165;43.016;25.784;2023-03-04T04:44:21;100161.06;;;7.74;100.00
9523;BME280;63165;43.016;25.784;2023-03-04T04:46:48;100142.81;;;7.67;100.00
9523;BME280;63165;43.016;25.784;2023-03-04T04:49:16;100160.16;;;7.72;100.00
9523;BME280;63165;43.016;25.784;2023-03-04T04:51:43;100170.59;;;7.72;100.00
9523;BME280;63165;43.016;25.784;2023-03-04T04:54:13;100156.72;;;7.70;100.00
9523;BME280;63165;43.016;25.784;2023-03-04T04:56:41;100155.84;;;7.67;100.00
9523;BME280;63165;43.016;25.784;2023-03-04T04:59:08;100166.28;;;7.73;100.00
9523;BME280;63165;43.016;25.784;2023-03-04T05:01:38;100170.59;;;7.77;100.00
9523;BME280;63165;43.016;25.784;2023-03-04T05:04:06;100173.19;;;7.77;100.00
9523;BME280;63165;43.016;25.784;2023-03-04T05:06:33;100164.53;;;7.78;100.00
9523;BME280;63165;43.016;25.784;2023-03-04T05:09:01;100170.56;;;7.86;100.00
9523;BME280;63165;43.016;25.784;2023-03-04T05:11:29;100164.50;;;7.81;100.00
9523;BME280;63165;43.016;25.784;2023-03-04T05:13:56;100167.09;;;7.84;100.00
9523;BME280;63165;43.016;25.784;2023-03-04T05:16:24;100165.34;;;7.82;100.00
9523;BME280;63165;43.016;25.784;2023-03-04T05:18:53;100176.63;;;7.87;99.55
9523;BME280;63165;43.016;25.784;2023-03-04T05:21:20;100175.81;;;7.80;99.40
9523;BME280;63165;43.016;25.784;2023-03-04T05:23:48;100176.66;;;7.76;99.13
9523;BME280;63165;43.016;25.784;2023-03-04T05:26:17;100186.19;;;7.82;99.16
9523;BME280;63165;43.016;25.784;2023-03-04T05:28:44;100190.56;;;7.76;99.38
9523;BME280;63165;43.016;25.784;2023-03-04T05:31:12;100197.47;;;7.85;99.80
9523;BME280;63165;43.016;25.784;2023-03-04T05:33:40;100198.34;;;7.86;99.73
9523;BME280;63165;43.016;25.784;2023-03-04T05:36:09;100204.44;;;7.86;100.00
9523;BME280;63165;43.016;25.784;2023-03-04T05:38:37;100201.81;;;7.88;99.85
9523;BME280;63165;43.016;25.784;2023-03-04T05:41:05;100203.53;;;7.87;99.86
9523;BME280;63165;43.016;25.784;2023-03-04T05:43:34;100215.69;;;7.91;100.00
9523;BME280;63165;43.016;25.784;2023-03-04T05:46:03;100203.53;;;7.90;99.96
9523;BME280;63165;43.016;25.784;2023-03-04T05:48:31;100207.84;;;7.93;100.00
9523;BME280;63165;43.016;25.784;2023-03-04T05:50:59;100207.00;;;7.92;100.00
9523;BME280;63165;43.016;25.784;2023-03-04T05:53:29;100200.94;;;7.95;100.00
9523;BME280;63165;43.016;25.784;2023-03-04T05:55:56;100204.41;;;7.95;100.00
9523;BME280;63165;43.016;25.784;2023-03-04T05:58:25;100204.38;;;7.98;100.00
9523;BME280;63165;43.016;25.784;2023-03-04T06:00:52;100199.19;;;7.97;100.00
9523;BME280;63165;43.016;25.784;2023-03-04T06:03:21;100185.31;;;7.90;100.00
9523;BME280;63165;43.016;25.784;2023-03-04T06:05:48;100196.53;;;7.98;100.00
9523;BME280;63165;43.016;25.784;2023-03-04T06:08:16;100199.16;;;8.03;100.00
9523;BME280;63165;43.016;25.784;2023-03-04T06:10:45;100202.63;;;8.05;100.00
9523;BME280;63165;43.016;25.784;2023-03-04T06:13:12;100203.50;;;8.04;100.00
9523;BME280;63165;43.016;25.784;2023-03-04T06:15:40;100195.69;;;8.03;99.82
9523;BME280;63165;43.016;25.784;2023-03-04T06:18:07;100206.94;;;8.08;99.75
9523;BME280;63165;43.016;25.784;2023-03-04T06:20:35;100205.19;;;8.13;98.98
9523;BME280;63165;43.016;25.784;2023-03-04T06:23:03;100207.78;;;8.16;99.18
9523;BME280;63165;43.016;25.784;2023-03-04T06:25:31;100209.50;;;8.17;99.05
9523;BME280;63165;43.016;25.784;2023-03-04T06:27:59;100201.72;;;8.12;99.43
9523;BME280;63165;43.016;25.784;2023-03-04T06:30:27;100199.97;;;8.11;99.89
9523;BME280;63165;43.016;25.784;2023-03-04T06:32:55;100204.31;;;8.14;100.00
9523;BME280;63165;43.016;25.784;2023-03-04T06:35:22;100210.38;;;8.19;100.00
9523;BME280;63165;43.016;25.784;2023-03-04T06:37:50;100200.78;;;8.23;99.95
9523;BME280;63165;43.016;25.784;2023-03-04T06:40:18;100192.13;;;8.19;100.00
9523;BME280;63165;43.016;25.784;2023-03-04T06:42:45;100204.25;;;8.26;99.80
9523;BME280;63165;43.016;25.784;2023-03-04T06:45:14;100200.78;;;8.23;100.00
9523;BME280;63165;43.016;25.784;2023-03-04T06:47:42;100198.19;;;8.23;100.00
9523;BME280;63165;43.016;25.784;2023-03-04T06:50:12;100199.91;;;8.30;100.00
9523;BME280;63165;43.016;25.784;2023-03-04T06:52:39;100197.28;;;8.33;100.00
9523;BME280;63165;43.016;25.784;2023-03-04T06:55:08;100193.78;;;8.34;100.00
9523;BME280;63165;43.016;25.784;2023-03-04T06:57:35;100198.13;;;8.36;100.00
9523;BME280;63165;43.016;25.784;2023-03-04T07:00:04;100198.13;;;8.35;100.00
9523;BME280;63165;43.016;25.784;2023-03-04T07:02:33;100192.06;;;8.36;100.00
9523;BME280;63165;43.016;25.784;2023-03-04T07:05:01;100192.88;;;8.40;100.00
9523;BME280;63165;43.016;25.784;2023-03-04T07:07:28;100195.50;;;8.46;100.00
9523;BME280;63165;43.016;25.784;2023-03-04T07:09:56;100193.75;;;8.49;100.00
9523;BME280;63165;43.016;25.784;2023-03-04T07:12:23;100181.59;;;8.45;100.00
9523;BME280;63165;43.016;25.784;2023-03-04T07:14:51;100194.56;;;8.59;100.00
9523;BME280;63165;43.016;25.784;2023-03-04T07:17:18;100174.56;;;8.60;100.00
9523;BME280;63165;43.016;25.784;2023-03-04T07:19:47;100184.91;;;8.73;100.00
9523;BME280;63165;43.016;25.784;2023-03-04T07:22:15;100183.97;;;8.81;100.00
9523;BME280;63165;43.016;25.784;2023-03-04T07:24:42;100186.56;;;8.87;100.00
9523;BME280;63165;43.016;25.784;2023-03-04T07:27:10;100182.19;;;8.87;100.00
9523;BME280;63165;43.016;25.784;2023-03-04T07:29:37;100196.03;;;8.99;100.00
9523;BME280;63165;43.016;25.784;2023-03-04T07:32:06;100178.59;;;9.02;100.00
9523;BME280;63165;43.016;25.784;2023-03-04T07:34:34;100186.34;;;9.13;100.00
9523;BME280;63165;43.016;25.784;2023-03-04T07:37:03;100181.06;;;9.19;100.00
9523;BME280;63165;43.016;25.784;2023-03-04T07:39:31;100177.53;;;9.22;100.00
9523;BME280;63165;43.016;25.784;2023-03-04T07:41:58;100191.34;;;9.35;100.00
9523;BME280;63165;43.016;25.784;2023-03-04T07:44:26;100184.38;;;9.37;100.00
9523;BME280;63165;43.016;25.784;2023-03-04T07:46:53;100188.63;;;9.48;100.00
9523;BME280;63165;43.016;25.784;2023-03-04T07:49:21;100192.00;;;9.60;99.97
9523;BME280;63165;43.016;25.784;2023-03-04T07:51:48;100171.13;;;9.57;99.72
9523;BME280;63165;43.016;25.784;2023-03-04T07:54:17;100191.81;;;9.75;99.40
9523;BME280;63165;43.016;25.784;2023-03-04T07:56:45;100182.22;;;9.79;98.75
9523;BME280;63165;43.016;25.784;2023-03-04T07:59:12;100183.81;;;9.90;98.13
9523;BME280;63165;43.016;25.784;2023-03-04T08:01:40;100188.94;;;9.97;98.30
9523;BME280;63165;43.016;25.784;2023-03-04T08:04:07;100190.63;;;10.04;98.13
9523;BME280;63165;43.016;25.784;2023-03-04T08:06:35;100186.13;;;10.14;97.38
9523;BME280;63165;43.016;25.784;2023-03-04T08:09:04;100187.78;;;10.19;97.01
9523;BME280;63165;43.016;25.784;2023-03-04T08:11:36;100191.19;;;10.27;96.80
9523;BME280;63165;43.016;25.784;2023-03-04T08:14:04;100170.28;;;10.31;96.27
9523;BME280;63165;43.016;25.784;2023-03-04T08:16:32;100182.22;;;10.48;95.75
9523;BME280;63165;43.016;25.784;2023-03-04T08:19:01;100165.56;;;10.56;94.86
9523;BME280;63165;43.016;25.784;2023-03-04T08:21:29;100155.88;;;10.62;95.01
9523;BME280;63165;43.016;25.784;2023-03-04T08:23:58;100154.13;;;10.61;94.53
9523;BME280;63165;43.016;25.784;2023-03-04T08:26:29;100171.13;;;10.90;94.67
9523;BME280;63165;43.016;25.784;2023-03-04T08:29:01;100166.38;;;11.14;94.32
9523;BME280;63165;43.016;25.784;2023-03-04T08:31:29;100156.69;;;11.20;92.37
9523;BME280;63165;43.016;25.784;2023-03-04T08:33:56;100165.09;;;11.36;91.21
9523;BME280;63165;43.016;25.784;2023-03-04T08:36:24;100159.69;;;11.45;90.33
9523;BME280;63165;43.016;25.784;2023-03-04T08:38:51;100163.09;;;11.52;88.38
9523;BME280;63165;43.016;25.784;2023-03-04T08:41:20;100154.19;;;11.59;88.35
9523;BME280;63165;43.016;25.784;2023-03-04T08:43:50;100147.09;;;11.64;88.04
9523;BME280;63165;43.016;25.784;2023-03-04T08:46:19;100150.50;;;11.71;86.87
9523;BME280;63165;43.016;25.784;2023-03-04T08:48:47;100148.63;;;11.76;85.36
9523;BME280;63165;43.016;25.784;2023-03-04T08:51:15;100145.28;;;11.68;84.13
9523;BME280;63165;43.016;25.784;2023-03-04T08:53:43;100140.84;;;11.72;84.30
9523;BME280;63165;43.016;25.784;2023-03-04T08:56:12;100142.28;;;11.88;85.29
9523;BME280;63165;43.016;25.784;2023-03-04T08:58:40;100142.84;;;12.04;85.17
9523;BME280;63165;43.016;25.784;2023-03-04T09:01:09;100142.66;;;12.13;83.60
9523;BME280;63165;43.016;25.784;2023-03-04T09:03:39;100130.34;;;12.15;81.01
9523;BME280;63165;43.016;25.784;2023-03-04T09:06:08;100129.28;;;12.26;79.82
9523;BME280;63165;43.016;25.784;2023-03-04T09:08:36;100130.81;;;12.34;79.66
9523;BME280;63165;43.016;25.784;2023-03-04T09:11:04;100128.09;;;12.39;79.93
9523;BME280;63165;43.016;25.784;2023-03-04T09:13:32;100110.13;;;12.22;79.31
9523;BME280;63165;43.016;25.784;2023-03-04T09:16:00;100116.66;;;12.41;78.46
9523;BME280;63165;43.016;25.784;2023-03-04T09:18:28;100133.00;;;12.53;78.01
9523;BME280;63165;43.016;25.784;2023-03-04T09:20:58;100124.13;;;12.58;76.38
9523;BME280;63165;43.016;25.784;2023-03-04T09:23:25;100124.13;;;12.58;76.76
9523;BME280;63165;43.016;25.784;2023-03-04T09:25:53;100110.97;;;12.60;75.87
9523;BME280;63165;43.016;25.784;2023-03-04T09:28:21;100126.34;;;12.75;75.34
9523;BME280;63165;43.016;25.784;2023-03-04T09:30:49;100122.00;;;12.74;73.99
9523;BME280;63165;43.016;25.784;2023-03-04T09:33:17;100121.09;;;12.75;73.81
9523;BME280;63165;43.016;25.784;2023-03-04T09:35:45;100128.06;;;12.78;74.57
9523;BME280;63165;43.016;25.784;2023-03-04T09:38:16;100111.34;;;12.80;74.14
9523;BME280;63165;43.016;25.784;2023-03-04T09:40:45;100116.41;;;12.88;73.50
9523;BME280;63165;43.016;25.784;2023-03-04T09:43:18;100112.88;;;12.91;72.56
9523;BME280;63165;43.016;25.784;2023-03-04T09:45:49;100101.44;;;12.92;72.66
9523;BME280;63165;43.016;25.784;2023-03-04T09:48:21;100107.19;;;13.08;72.18
9523;BME280;63165;43.016;25.784;2023-03-04T09:50:59;100101.00;;;13.09;72.25
9523;BME280;63165;43.016;25.784;2023-03-04T09:53:39;100090.50;;;13.09;72.62
9523;BME280;63165;43.016;25.784;2023-03-04T09:56:14;100084.97;;;13.19;73.23
9523;BME280;63165;43.016;25.784;2023-03-04T09:58:48;100097.94;;;13.26;73.15
9523;BME280;63165;43.016;25.784;2023-03-04T10:01:22;100073.50;;;13.22;73.36
9523;BME280;63165;43.016;25.784;2023-03-04T10:03:56;100081.84;;;13.39;73.06
9523;BME280;63165;43.016;25.784;2023-03-04T10:06:25;100082.44;;;13.49;72.96
9523;BME280;63165;43.016;25.784;2023-03-04T10:08:57;100084.00;;;13.56;71.69
9523;BME280;63165;43.016;25.784;2023-03-04T10:11:30;100075.03;;;13.64;71.41
9523;BME280;63165;43.016;25.784;2023-03-04T10:14:04;100080.19;;;13.67;70.32
9523;BME280;63165;43.016;25.784;2023-03-04T10:16:44;100059.25;;;13.64;70.54
9523;BME280;63165;43.016;25.784;2023-03-04T10:19:25;100063.13;;;13.80;70.87
9523;BME280;63165;43.016;25.784;2023-03-04T10:21:53;100050.94;;;13.77;70.59
9523;BME280;63165;43.016;25.784;2023-03-04T10:24:27;100058.75;;;13.81;69.75
9523;BME280;63165;43.016;25.784;2023-03-04T10:26:59;100048.22;;;13.81;68.78
9523;BME280;63165;43.016;25.784;2023-03-04T10:29:30;100047.03;;;13.91;68.47
9523;BME280;63165;43.016;25.784;2023-03-04T10:31:59;100037.03;;;14.02;68.99
9523;BME280;63165;43.016;25.784;2023-03-04T10:34:26;100034.28;;;14.07;67.86
9523;BME280;63165;43.016;25.784;2023-03-04T10:36:58;100034.00;;;14.16;66.99
9523;BME280;63165;43.016;25.784;2023-03-04T10:39:30;100026.97;;;14.16;67.58
9523;BME280;63165;43.016;25.784;2023-03-04T10:42:00;100021.69;;;14.16;66.91
9523;BME280;63165;43.016;25.784;2023-03-04T10:44:29;99999.78;;;14.16;65.86
9523;BME280;63165;43.016;25.784;2023-03-04T10:46:57;100006.50;;;14.25;66.01
9523;BME280;63165;43.016;25.784;2023-03-04T10:49:25;100002.25;;;14.21;64.88
9523;BME280;63165;43.016;25.784;2023-03-04T10:51:54;100004.41;;;14.08;64.28
9523;BME280;63165;43.016;25.784;2023-03-04T10:54:30;99991.50;;;14.00;63.99
9523;BME280;63165;43.016;25.784;2023-03-04T10:57:02;99986.16;;;14.03;64.99
9523;BME280;63165;43.016;25.784;2023-03-04T10:59:38;99987.06;;;14.02;64.57
9523;BME280;63165;43.016;25.784;2023-03-04T11:02:24;99985.97;;;14.09;64.59
9523;BME280;63165;43.016;25.784;2023-03-04T11:04:55;99987.53;;;14.15;64.86
9523;BME280;63165;43.016;25.784;2023-03-04T11:07:25;99970.09;;;14.12;64.45
9523;BME280;63165;43.016;25.784;2023-03-04T11:09:54;99978.53;;;14.22;63.74
9523;BME280;63165;43.016;25.784;2023-03-04T11:12:31;99963.38;;;14.29;63.91
9523;BME280;63165;43.016;25.784;2023-03-04T11:15:00;99960.75;;;14.29;64.39
9523;BME280;63165;43.016;25.784;2023-03-04T11:17:37;99938.09;;;14.25;64.41
9523;BME280;63165;43.016;25.784;2023-03-04T11:20:12;99923.31;;;14.21;65.27
9523;BME280;63165;43.016;25.784;2023-03-04T11:22:42;99937.59;;;14.40;64.25
9523;BME280;63165;43.016;25.784;2023-03-04T11:25:22;99941.78;;;14.46;63.86
9523;BME280;63165;43.016;25.784;2023-03-04T11:27:53;99936.44;;;14.47;64.98
9523;BME280;63165;43.016;25.784;2023-03-04T11:30:38;99926.44;;;14.59;64.51
9523;BME280;63165;43.016;25.784;2023-03-04T11:33:19;99927.75;;;14.72;64.36
9523;BME280;63165;43.016;25.784;2023-03-04T11:35:54;99927.59;;;14.75;65.13
9523;BME280;63165;43.016;25.784;2023-03-04T11:38:28;99926.84;;;14.71;64.42
9523;BME280;63165;43.016;25.784;2023-03-04T11:41:04;99921.78;;;14.67;63.85
9523;BME280;63165;43.016;25.784;2023-03-04T11:43:37;99915.53;;;14.69;64.72
9523;BME280;63165;43.016;25.784;2023-03-04T11:46:19;99915.56;;;14.68;63.75
9523;BME280;63165;43.016;25.784;2023-03-04T11:49:06;99911.25;;;14.67;63.44
9523;BME280;63165;43.016;25.784;2023-03-04T11:51:41;99901.41;;;14.72;63.14
9523;BME280;63165;43.016;25.784;2023-03-04T11:54:21;99901.94;;;14.82;62.87
9523;BME280;63165;43.016;25.784;2023-03-04T11:56:57;99905.88;;;14.93;61.96
9523;BME280;63165;43.016;25.784;2023-03-04T11:59:30;99886.72;;;14.88;62.14
9523;BME280;63165;43.016;25.784;2023-03-04T12:02:11;99909.31;;;14.95;61.99
9523;BME280;63165;43.016;25.784;2023-03-04T12:05:04;99897.72;;;15.00;61.03
9523;BME280;63165;43.016;25.784;2023-03-04T12:07:53;99911.03;;;14.97;61.87
9523;BME280;63165;43.016;25.784;2023-03-04T12:10:29;99899.81;;;14.91;61.77
9523;BME280;63165;43.016;25.784;2023-03-04T12:16:14;99907.28;;;14.79;61.83
9523;BME280;63165;43.016;25.784;2023-03-04T12:19:01;99893.59;;;14.69;61.70
9523;BME280;63165;43.016;25.784;2023-03-04T12:21:48;99891.81;;;14.69;62.15
9523;BME280;63165;43.016;25.784;2023-03-04T12:27:19;99894.16;;;14.77;62.17
9523;BME280;63165;43.016;25.784;2023-03-04T12:29:56;99884.69;;;14.73;61.92
9523;BME280;63165;43.016;25.784;2023-03-04T12:32:35;99890.63;;;14.78;62.25
9523;BME280;63165;43.016;25.784;2023-03-04T12:35:23;99884.56;;;14.76;61.11
9523;BME280;63165;43.016;25.784;2023-03-04T12:38:03;99884.09;;;14.65;60.56
9523;BME280;63165;43.016;25.784;2023-03-04T12:40:46;99873.72;;;14.60;61.16
9523;BME280;63165;43.016;25.784;2023-03-04T12:43:30;99878.13;;;14.60;61.59
9523;BME280;63165;43.016;25.784;2023-03-04T12:46:02;99877.06;;;14.65;62.17
9523;BME280;63165;43.016;25.784;2023-03-04T12:48:34;99869.06;;;14.68;62.17
9523;BME280;63165;43.016;25.784;2023-03-04T12:51:13;99870.06;;;14.64;61.65
9523;BME280;63165;43.016;25.784;2023-03-04T12:53:51;99875.50;;;14.60;61.06
9523;BME280;63165;43.016;25.784;2023-03-04T12:56:26;99862.34;;;14.60;61.37
9523;BME280;63165;43.016;25.784;2023-03-04T12:58:55;99856.03;;;14.64;61.13
9523;BME280;63165;43.016;25.784;2023-03-04T13:01:25;99854.25;;;14.64;61.28
9523;BME280;63165;43.016;25.784;2023-03-04T13:04:01;99857.59;;;14.69;60.35
9523;BME280;63165;43.016;25.784;2023-03-04T13:06:40;99847.81;;;14.73;60.73
9523;BME280;63165;43.016;25.784;2023-03-04T13:09:17;99855.41;;;14.81;60.90
9523;BME280;63165;43.016;25.784;2023-03-04T13:11:54;99839.81;;;14.76;60.12
9523;BME280;63165;43.016;25.784;2023-03-04T13:14:33;99836.53;;;14.69;60.00